createdAt,value
2023-03-03T00:01:02.204Z,24.38
2023-03-03T00:03:29.162Z,26.33
2023-03-03T00:05:56.133Z,25.75
2023-03-03T00:08:23.222Z,25.35
2023-03-03T00:10:50.569Z,26.73
2023-03-03T00:13:24.577Z,27.35
2023-03-03T00:15:52.828Z,28.40
2023-03-03T00:18:35.344Z,28.65
2023-03-03T00:21:08.838Z,26.70
2023-03-03T00:23:40.487Z,27.38
2023-03-03T00:26:30.804Z,27.13
2023-03-03T00:28:57.881Z,26.30
2023-03-03T00:31:35.323Z,32.50
2023-03-03T00:34:17.627Z,28.38
2023-03-03T00:36:44.928Z,25.92
2023-03-03T00:39:38.676Z,24.90
2023-03-03T00:42:17.867Z,26.60
2023-03-03T00:45:00.891Z,29.20
2023-03-03T00:47:43.624Z,25.95
2023-03-03T00:50:10.480Z,26.63
2023-03-03T00:52:44.653Z,25.08
2023-03-03T00:55:12.314Z,27.23
2023-03-03T00:57:39.297Z,26.70
2023-03-03T01:00:10.228Z,26.90
2023-03-03T01:02:37.305Z,28.52
2023-03-03T01:05:04.638Z,22.85
2023-03-03T01:07:31.703Z,23.45
2023-03-03T01:09:58.623Z,22.42
2023-03-03T01:12:27.082Z,24.05
2023-03-03T01:14:55.364Z,23.77
2023-03-03T01:17:22.582Z,25.70
2023-03-03T01:19:49.824Z,24.95
2023-03-03T01:22:16.856Z,24.38
2023-03-03T01:24:46.839Z,25.55
2023-03-03T01:27:13.779Z,23.88
2023-03-03T01:29:40.709Z,26.13
2023-03-03T01:32:07.751Z,24.55
2023-03-03T01:34:34.774Z,24.40
2023-03-03T01:37:01.781Z,24.23
2023-03-03T01:39:28.701Z,25.02
2023-03-03T01:41:55.789Z,21.15
2023-03-03T01:44:22.882Z,21.25
2023-03-03T01:47:11.834Z,18.52
2023-03-03T01:49:55.814Z,24.70
2023-03-03T01:52:34.436Z,20.80
2023-03-03T01:55:10.030Z,19.73
2023-03-03T01:57:52.524Z,25.65
2023-03-03T02:00:20.170Z,26.70
2023-03-03T02:02:47.558Z,31.45
2023-03-03T02:05:16.433Z,25.48
2023-03-03T02:07:44.892Z,25.90
2023-03-03T02:10:16.155Z,26.27
2023-03-03T02:12:56.039Z,26.30
2023-03-03T02:15:32.222Z,24.13
2023-03-03T02:18:04.999Z,24.20
2023-03-03T02:21:14.338Z,23.02
2023-03-03T02:23:58.424Z,21.77
2023-03-03T02:26:29.931Z,23.23
2023-03-03T02:29:01.870Z,21.70
2023-03-03T02:31:31.522Z,23.33
2023-03-03T02:33:58.920Z,19.23
2023-03-03T02:36:33.032Z,19.90
2023-03-03T02:39:10.693Z,17.98
2023-03-03T02:42:02.916Z,20.08
2023-03-03T02:44:36.782Z,19.55
2023-03-03T02:47:04.107Z,19.98
2023-03-03T02:49:34.934Z,18.63
2023-03-03T02:52:05.912Z,19.63
2023-03-03T02:54:33.338Z,17.65
2023-03-03T02:57:03.151Z,20.42
2023-03-03T02:59:30.573Z,17.88
2023-03-03T03:04:28.898Z,18.48
2023-03-03T03:06:56.564Z,18.85
2023-03-03T03:09:28.165Z,17.73
2023-03-03T03:11:55.637Z,15.90
2023-03-03T03:14:25.904Z,19.13
2023-03-03T03:16:54.479Z,14.52
2023-03-03T03:19:21.591Z,16.75
2023-03-03T03:21:48.754Z,16.30
2023-03-03T03:24:18.043Z,13.88
2023-03-03T03:26:50.093Z,18.33
2023-03-03T03:29:17.618Z,14.80
2023-03-03T03:31:44.676Z,18.80
2023-03-03T03:34:11.650Z,23.80
2023-03-03T03:36:39.823Z,17.42
2023-03-03T03:39:07.328Z,15.60
2023-03-03T03:41:37.509Z,15.33
2023-03-03T03:44:05.011Z,18.88
2023-03-03T03:46:31.958Z,18.77
2023-03-03T03:48:59.080Z,15.48
2023-03-03T03:51:26.736Z,15.73
2023-03-03T03:53:53.693Z,15.25
2023-03-03T03:56:20.654Z,16.25
2023-03-03T03:58:51.565Z,14.43
2023-03-03T04:01:18.694Z,14.05
2023-03-03T04:03:49.234Z,12.73
2023-03-03T04:06:19.525Z,15.07
2023-03-03T04:08:47.001Z,12.50
2023-03-03T04:11:14.892Z,15.85
2023-03-03T04:13:42.465Z,15.63
2023-03-03T04:16:10.238Z,17.92
2023-03-03T04:18:38.935Z,15.57
2023-03-03T04:21:06.370Z,13.75
2023-03-03T04:23:33.905Z,12.85
2023-03-03T04:26:02.192Z,16.08
2023-03-03T04:28:29.462Z,15.38
2023-03-03T04:30:56.808Z,13.52
2023-03-03T04:33:25.280Z,11.57
2023-03-03T04:35:52.570Z,12.95
2023-03-03T04:38:19.667Z,12.13
2023-03-03T04:40:47.885Z,12.23
2023-03-03T04:43:16.873Z,11.05
2023-03-03T04:45:44.528Z,11.50
2023-03-03T04:48:12.063Z,11.85
2023-03-03T04:50:39.096Z,9.95
2023-03-03T04:53:06.076Z,13.23
2023-03-03T04:55:33.366Z,14.50
2023-03-03T04:58:00.715Z,15.02
2023-03-03T05:00:28.088Z,13.07
2023-03-03T05:02:55.135Z,14.20
2023-03-03T05:05:23.985Z,12.60
2023-03-03T05:07:50.920Z,11.95
2023-03-03T05:10:18.036Z,13.00
2023-03-03T05:12:44.962Z,13.23
2023-03-03T05:15:12.415Z,16.67
2023-03-03T05:17:39.368Z,14.63
2023-03-03T05:20:08.429Z,14.50
2023-03-03T05:22:35.404Z,15.93
2023-03-03T05:25:02.427Z,14.55
2023-03-03T05:27:29.355Z,17.70
2023-03-03T05:29:56.750Z,15.70
2023-03-03T05:32:23.742Z,19.08
2023-03-03T05:34:52.489Z,18.77
2023-03-03T05:37:19.443Z,20.13
2023-03-03T05:39:46.393Z,19.00
2023-03-03T05:42:14.446Z,18.92
2023-03-03T05:44:41.382Z,23.42
2023-03-03T05:47:09.716Z,21.00
2023-03-03T05:49:36.808Z,20.70
2023-03-03T05:52:04.063Z,19.63
2023-03-03T05:54:31.083Z,18.98
2023-03-03T05:56:58.017Z,18.83
2023-03-03T05:59:25.157Z,17.35
2023-03-03T06:01:52.193Z,18.05
2023-03-03T06:04:19.222Z,19.08
2023-03-03T06:06:46.183Z,19.13
2023-03-03T06:09:13.269Z,18.00
2023-03-03T06:11:40.229Z,17.27
2023-03-03T06:14:07.346Z,18.83
2023-03-03T06:16:34.388Z,22.20
2023-03-03T06:19:01.424Z,20.13
2023-03-03T06:21:28.454Z,23.42
2023-03-03T06:23:55.381Z,21.33
2023-03-03T06:26:23.037Z,21.77
2023-03-03T06:28:50.223Z,19.73
2023-03-03T06:31:17.508Z,21.30
2023-03-03T06:33:44.483Z,21.95
2023-03-03T06:36:12.138Z,20.88
2023-03-03T06:38:39.071Z,20.55
2023-03-03T06:41:08.307Z,20.55
2023-03-03T06:43:36.366Z,20.23
2023-03-03T06:46:07.238Z,22.52
2023-03-03T06:48:34.627Z,20.05
2023-03-03T06:51:09.342Z,23.67
2023-03-03T06:53:37.047Z,22.23
2023-03-03T06:56:09.696Z,24.15
2023-03-03T06:58:36.710Z,28.95
2023-03-03T07:01:12.656Z,28.50
2023-03-03T07:03:39.586Z,26.42
2023-03-03T07:06:23.349Z,26.40
2023-03-03T07:08:52.721Z,31.33
2023-03-03T07:11:22.478Z,29.00
2023-03-03T07:13:54.822Z,27.25
2023-03-03T07:16:27.872Z,25.52
2023-03-03T07:18:58.691Z,27.08
2023-03-03T07:21:36.228Z,25.60
2023-03-03T07:24:27.898Z,21.75
2023-03-03T07:27:06.236Z,21.45
2023-03-03T07:29:34.212Z,21.27
2023-03-03T07:32:02.729Z,21.02
2023-03-03T07:34:35.826Z,25.65
2023-03-03T07:37:14.010Z,25.42
2023-03-03T07:39:47.347Z,21.77
2023-03-03T07:42:28.737Z,19.52
2023-03-03T07:45:29.456Z,23.65
2023-03-03T07:48:17.537Z,24.40
2023-03-03T07:50:45.063Z,19.58
2023-03-03T07:53:34.853Z,22.23
2023-03-03T07:56:02.364Z,19.27
2023-03-03T07:58:39.724Z,18.10
2023-03-03T08:01:30.709Z,19.38
2023-03-03T08:03:58.522Z,21.08
2023-03-03T08:06:41.770Z,16.33
2023-03-03T08:09:11.717Z,17.55
2023-03-03T08:11:58.418Z,17.08
2023-03-03T08:14:34.720Z,17.63
2023-03-03T08:17:02.688Z,17.08
2023-03-03T08:19:31.063Z,18.08
2023-03-03T08:22:17.125Z,16.58
2023-03-03T08:24:44.124Z,19.65
2023-03-03T08:27:11.629Z,17.88
2023-03-03T08:29:38.613Z,16.38
2023-03-03T08:32:05.860Z,15.75
2023-03-03T08:34:32.897Z,20.10
2023-03-03T08:36:59.878Z,19.08
2023-03-03T08:39:26.903Z,17.95
2023-03-03T08:41:53.882Z,18.48
2023-03-03T08:44:20.849Z,20.23
2023-03-03T08:46:47.919Z,17.98
2023-03-03T08:49:14.952Z,16.45
2023-03-03T08:51:42.038Z,18.88
2023-03-03T08:54:08.971Z,21.17
2023-03-03T08:56:36.037Z,17.60
2023-03-03T08:59:03.408Z,15.38
2023-03-03T09:01:32.501Z,20.33
2023-03-03T09:03:59.826Z,20.25
2023-03-03T09:06:26.808Z,19.27
2023-03-03T09:08:54.875Z,23.75
2023-03-03T09:11:28.818Z,21.02
2023-03-03T09:14:15.128Z,20.83
2023-03-03T09:16:54.202Z,18.38
2023-03-03T09:19:26.690Z,16.85
2023-03-03T09:21:56.523Z,18.30
2023-03-03T09:24:36.953Z,18.83
2023-03-03T09:27:27.266Z,20.95
2023-03-03T09:29:54.207Z,24.47
2023-03-03T09:32:39.751Z,18.55
2023-03-03T09:35:36.590Z,20.90
2023-03-03T09:38:33.179Z,21.45
2023-03-03T09:41:38.098Z,25.25
2023-03-03T09:45:08.631Z,21.02
2023-03-03T09:48:38.344Z,20.33
2023-03-03T09:51:49.321Z,18.52
2023-03-03T09:54:50.893Z,19.50
2023-03-03T09:57:19.865Z,19.55
2023-03-03T10:00:17.479Z,24.98
2023-03-03T10:03:03.656Z,21.30
2023-03-03T10:06:17.950Z,21.88
2023-03-03T10:09:46.786Z,25.30
2023-03-03T10:13:01.483Z,17.58
2023-03-03T10:16:12.836Z,18.85
2023-03-03T10:21:30.123Z,18.25
2023-03-03T10:24:24.803Z,19.02
2023-03-03T10:27:14.287Z,21.20
2023-03-03T10:30:24.188Z,19.85
2023-03-03T10:33:10.923Z,16.35
2023-03-03T10:36:07.311Z,17.48
2023-03-03T10:39:20.405Z,16.85
2023-03-03T10:42:16.233Z,17.33
2023-03-03T10:45:05.201Z,16.77
2023-03-03T10:48:16.307Z,16.77
2023-03-03T10:51:22.227Z,16.48
2023-03-03T10:54:03.077Z,15.48
2023-03-03T10:57:02.207Z,13.25
2023-03-03T10:59:57.479Z,15.98
2023-03-03T11:02:34.840Z,13.27
2023-03-03T11:05:47.986Z,18.27
2023-03-03T11:08:23.566Z,16.52
2023-03-03T11:11:09.852Z,15.93
2023-03-03T11:14:05.718Z,16.15
2023-03-03T11:17:01.523Z,17.70
2023-03-03T11:19:50.052Z,17.08
2023-03-03T11:22:38.280Z,18.35
2023-03-03T11:25:40.459Z,22.52
2023-03-03T11:28:19.119Z,18.98
2023-03-03T11:31:20.979Z,18.17
2023-03-03T11:34:34.625Z,21.17
2023-03-03T11:37:14.836Z,17.95
2023-03-03T11:39:44.093Z,19.10
2023-03-03T11:42:46.969Z,18.50
2023-03-03T11:45:20.788Z,19.35
2023-03-03T11:48:12.837Z,18.85
2023-03-03T11:50:56.279Z,18.95
2023-03-03T11:54:05.553Z,23.25
2023-03-03T11:56:44.816Z,18.42
2023-03-03T12:00:08.216Z,18.42
2023-03-03T12:03:18.323Z,19.83
2023-03-03T12:06:21.692Z,19.00
2023-03-03T12:09:28.965Z,18.13
2023-03-03T12:12:13.371Z,18.13
2023-03-03T12:15:08.471Z,20.88
2023-03-03T12:18:02.857Z,17.60
2023-03-03T12:21:24.411Z,18.30
2023-03-03T12:24:08.501Z,19.77
2023-03-03T12:27:00.214Z,20.52
2023-03-03T12:29:52.062Z,20.08
2023-03-03T12:32:44.176Z,18.30
2023-03-03T12:36:05.159Z,21.17
2023-03-03T12:38:56.408Z,19.52
2023-03-03T12:41:59.652Z,20.80
2023-03-03T12:45:02.133Z,19.92
2023-03-03T12:47:33.471Z,19.40
2023-03-03T12:50:46.210Z,21.83
2023-03-03T12:53:55.380Z,18.88
2023-03-03T12:56:55.269Z,18.02
2023-03-03T12:59:47.820Z,17.15
2023-03-03T13:02:29.691Z,17.33
2023-03-03T13:05:29.177Z,17.70
2023-03-03T13:08:22.767Z,19.00
2023-03-03T13:11:12.618Z,18.15
2023-03-03T13:13:57.985Z,21.40
2023-03-03T13:16:45.817Z,19.10
2023-03-03T13:19:27.314Z,18.35
2023-03-03T13:22:21.998Z,20.42
2023-03-03T13:25:09.373Z,18.85
2023-03-03T13:27:42.025Z,18.50
2023-03-03T13:30:25.249Z,17.88
2023-03-03T13:33:30.788Z,19.42
2023-03-03T13:36:09.055Z,17.92
2023-03-03T13:38:56.443Z,18.02
2023-03-03T13:41:44.564Z,20.55
2023-03-03T13:44:25.666Z,19.60
2023-03-03T13:47:19.481Z,18.30
2023-03-03T13:49:56.921Z,20.77
2023-03-03T13:52:29.039Z,20.02
2023-03-03T13:55:18.796Z,18.05
2023-03-03T14:00:27.334Z,17.98
2023-03-03T14:03:05.833Z,17.15
2023-03-03T14:05:49.043Z,19.70
2023-03-03T14:09:19.891Z,20.33
2023-03-03T14:12:07.878Z,16.95
2023-03-03T14:14:59.226Z,17.38
2023-03-03T14:17:49.924Z,18.83
2023-03-03T14:20:29.026Z,18.08
2023-03-03T14:23:04.006Z,17.23
2023-03-03T14:25:52.631Z,16.33
2023-03-03T14:28:23.995Z,21.00
2023-03-03T14:30:58.642Z,16.75
2023-03-03T14:33:32.265Z,16.33
2023-03-03T14:35:59.490Z,18.13
2023-03-03T14:38:32.651Z,17.52
2023-03-03T14:41:18.230Z,19.85
2023-03-03T14:44:24.036Z,18.33
2023-03-03T14:47:11.469Z,17.90
2023-03-03T14:49:40.445Z,17.63
2023-03-03T14:52:16.437Z,15.07
2023-03-03T14:54:56.540Z,21.60
2023-03-03T14:57:46.998Z,15.25
2023-03-03T15:00:14.810Z,22.48
2023-03-03T15:02:52.595Z,17.58
2023-03-03T15:05:22.512Z,17.80
2023-03-03T15:08:11.073Z,16.37
2023-03-03T15:10:45.956Z,18.20
2023-03-03T15:13:22.044Z,16.90
2023-03-03T15:16:24.207Z,19.67
2023-03-03T15:19:19.349Z,19.35
2023-03-03T15:21:51.746Z,17.27
2023-03-03T15:24:49.645Z,20.92
2023-03-03T15:27:28.814Z,16.60
2023-03-03T15:30:22.388Z,16.13
2023-03-03T15:33:01.630Z,22.42
2023-03-03T15:35:48.596Z,17.58
2023-03-03T15:39:16.152Z,19.52
2023-03-03T15:42:35.805Z,16.70
2023-03-03T15:45:46.723Z,20.65
2023-03-03T15:48:43.648Z,16.48
2023-03-03T15:51:25.453Z,20.65
2023-03-03T15:54:15.015Z,19.77
2023-03-03T15:56:52.740Z,23.88
2023-03-03T15:59:26.331Z,18.33
2023-03-03T16:02:10.571Z,18.23
2023-03-03T16:04:45.824Z,17.95
2023-03-03T16:07:58.607Z,17.75
2023-03-03T16:11:09.379Z,18.05
2023-03-03T16:14:10.704Z,14.43
2023-03-03T16:17:15.702Z,19.67
2023-03-03T16:20:01.201Z,14.38
2023-03-03T16:23:07.763Z,13.95
2023-03-03T16:26:04.962Z,13.60
2023-03-03T16:28:59.660Z,13.82
2023-03-03T16:31:58.470Z,13.48
2023-03-03T16:34:56.086Z,14.05
2023-03-03T16:37:34.949Z,16.05
2023-03-03T16:40:23.277Z,14.57
2023-03-03T16:43:09.601Z,13.13
2023-03-03T16:45:40.094Z,16.65
2023-03-03T16:48:45.872Z,14.25
2023-03-03T16:51:28.237Z,12.77
2023-03-03T16:54:38.099Z,13.25
2023-03-03T16:57:28.750Z,12.25
2023-03-03T17:00:21.321Z,13.40
2023-03-03T17:03:45.391Z,13.77
2023-03-03T17:06:34.949Z,13.50
2023-03-03T17:09:50.114Z,14.32
2023-03-03T17:12:53.829Z,13.38
2023-03-03T17:15:31.134Z,12.45
2023-03-03T17:19:04.522Z,14.65
2023-03-03T17:22:06.080Z,13.02
2023-03-03T17:24:48.838Z,11.55
2023-03-03T17:27:31.604Z,15.25
2023-03-03T17:30:40.592Z,15.05
2023-03-03T17:33:39.279Z,13.90
2023-03-03T17:37:12.890Z,13.60
2023-03-03T17:40:12.375Z,15.07
2023-03-03T17:43:01.022Z,10.85
2023-03-03T17:45:34.066Z,12.90
2023-03-03T17:48:34.330Z,12.60
2023-03-03T17:51:24.649Z,10.77
2023-03-03T17:54:27.932Z,15.43
2023-03-03T17:57:22.520Z,10.32
2023-03-03T18:00:33.107Z,14.45
2023-03-03T18:03:15.219Z,13.30
2023-03-03T18:06:30.165Z,13.82
2023-03-03T18:09:48.778Z,10.48
2023-03-03T18:12:22.284Z,11.70
2023-03-03T18:15:05.265Z,13.35
2023-03-03T18:18:03.478Z,13.30
2023-03-03T18:21:07.521Z,11.75
2023-03-03T18:23:45.194Z,12.15
2023-03-03T18:26:36.055Z,11.00
2023-03-03T18:29:23.591Z,14.80
2023-03-03T18:31:53.828Z,12.43
2023-03-03T18:34:21.189Z,14.38
2023-03-03T18:37:08.116Z,13.20
2023-03-03T18:39:47.881Z,15.80
2023-03-03T18:42:27.252Z,14.98
2023-03-03T18:44:54.212Z,15.90
2023-03-03T18:47:59.223Z,14.05
2023-03-03T18:50:37.965Z,14.60
2023-03-03T18:53:10.985Z,12.77
2023-03-03T18:55:50.016Z,12.10
2023-03-03T18:58:17.289Z,16.70
2023-03-03T19:00:52.798Z,15.18
2023-03-03T19:04:17.098Z,17.35
2023-03-03T19:07:04.344Z,12.57
2023-03-03T19:09:57.068Z,12.25
2023-03-03T19:12:55.434Z,14.60
2023-03-03T19:15:33.554Z,14.38
2023-03-03T19:18:03.210Z,13.75
2023-03-03T19:20:48.650Z,15.00
2023-03-03T19:23:24.389Z,14.23
2023-03-03T19:26:25.536Z,15.43
2023-03-03T19:29:42.633Z,15.65
2023-03-03T19:32:28.505Z,17.88
2023-03-03T19:35:10.229Z,18.15
2023-03-03T19:37:54.898Z,19.17
2023-03-03T19:40:36.738Z,20.20
2023-03-03T19:43:46.969Z,24.17
2023-03-03T19:46:40.943Z,18.58
2023-03-03T19:49:46.234Z,17.50
2023-03-03T19:52:37.533Z,17.50
2023-03-03T19:57:58.723Z,15.35
2023-03-03T20:00:49.665Z,16.00
2023-03-03T20:03:59.622Z,16.05
2023-03-03T20:06:43.693Z,21.00
2023-03-03T20:09:27.629Z,18.58
2023-03-03T20:12:10.009Z,15.50
2023-03-03T20:14:59.086Z,15.88
2023-03-03T20:17:52.142Z,14.10
2023-03-03T20:20:33.948Z,16.00
2023-03-03T20:23:24.931Z,19.05
2023-03-03T20:26:20.656Z,14.52
2023-03-03T20:29:19.797Z,20.88
2023-03-03T20:31:57.577Z,16.45
2023-03-03T20:35:05.305Z,17.58
2023-03-03T20:38:12.594Z,18.10
2023-03-03T20:41:02.426Z,18.00
2023-03-03T20:43:48.758Z,16.42
2023-03-03T20:46:41.188Z,16.45
2023-03-03T20:49:49.782Z,17.20
2023-03-03T20:52:47.009Z,15.77
2023-03-03T20:55:17.218Z,16.05
2023-03-03T20:58:03.904Z,18.17
2023-03-03T21:01:05.068Z,15.65
2023-03-03T21:03:42.313Z,17.77
2023-03-03T21:06:16.087Z,16.60
2023-03-03T21:08:55.045Z,15.27
2023-03-03T21:11:31.245Z,16.27
2023-03-03T21:14:10.104Z,20.60
2023-03-03T21:16:37.462Z,16.10
2023-03-03T21:19:23.578Z,18.42
2023-03-03T21:21:51.584Z,16.30
2023-03-03T21:24:22.583Z,20.10
2023-03-03T21:26:49.478Z,16.38
2023-03-03T21:29:30.306Z,18.90
2023-03-03T21:31:59.919Z,15.45
2023-03-03T21:34:36.850Z,16.00
2023-03-03T21:37:34.772Z,15.95
2023-03-03T21:40:23.261Z,17.02
2023-03-03T21:42:51.479Z,15.02
2023-03-03T21:45:23.620Z,16.80
2023-03-03T21:47:52.021Z,16.38
2023-03-03T21:50:21.960Z,18.98
2023-03-03T21:52:49.145Z,14.93
2023-03-03T21:55:16.243Z,15.30
2023-03-03T21:57:43.281Z,13.50
2023-03-03T22:00:11.249Z,15.23
2023-03-03T22:02:38.513Z,14.93
2023-03-03T22:05:07.537Z,14.15
2023-03-03T22:07:34.713Z,16.67
2023-03-03T22:10:01.815Z,14.82
2023-03-03T22:12:28.753Z,13.23
2023-03-03T22:14:55.895Z,16.73
2023-03-03T22:17:25.388Z,14.82
2023-03-03T22:19:52.649Z,16.08
2023-03-03T22:22:19.667Z,16.38
2023-03-03T22:24:46.614Z,16.67
2023-03-03T22:27:14.453Z,15.95
2023-03-03T22:29:41.506Z,14.50
2023-03-03T22:32:08.558Z,15.13
2023-03-03T22:34:36.062Z,19.42
2023-03-03T22:37:03.244Z,15.60
2023-03-03T22:39:30.245Z,16.35
2023-03-03T22:41:57.238Z,16.58
2023-03-03T22:44:24.394Z,16.00
2023-03-03T22:46:51.470Z,13.85
2023-03-03T22:49:18.702Z,15.85
2023-03-03T22:51:45.712Z,14.35
2023-03-03T22:54:12.866Z,12.65
2023-03-03T22:56:39.895Z,14.52
2023-03-03T22:59:06.863Z,12.75
2023-03-03T23:01:33.775Z,14.90
2023-03-03T23:04:01.331Z,13.55
2023-03-03T23:06:28.645Z,12.73
2023-03-03T23:08:55.624Z,11.85
2023-03-03T23:11:24.668Z,14.23
2023-03-03T23:13:51.766Z,13.75
2023-03-03T23:16:19.033Z,13.98
2023-03-03T23:18:46.495Z,11.02
2023-03-03T23:21:13.485Z,9.63
2023-03-03T23:23:40.439Z,9.60
2023-03-03T23:26:07.548Z,10.48
2023-03-03T23:28:34.659Z,11.45
2023-03-03T23:31:01.957Z,10.10
2023-03-03T23:33:29.148Z,11.50
2023-03-03T23:35:56.543Z,10.15
2023-03-03T23:38:23.669Z,8.77
2023-03-03T23:40:50.620Z,9.45
2023-03-03T23:43:17.606Z,9.93
2023-03-03T23:45:44.634Z,10.27
2023-03-03T23:48:11.884Z,7.30
2023-03-03T23:50:39.223Z,9.57
2023-03-03T23:53:07.474Z,9.82
2023-03-03T23:55:36.052Z,9.82
2023-03-03T23:58:03.738Z,10.35
